DAL319 KBOS-KLGA
Flight info
| Callsign | DAL319 |
|---|---|
| Flight time | 1h 2m |
| Altitude | 16000 |
| Route | PATSS7 PATSS DCT NELIE VADDR1 |
| Aircraft | A321/M-SDE3FGHIRWY/LB1 |
Departure
| Time | 2026-05-08 06:59 |
|---|---|
| Airport | Boston Logan International Airport (KBOS) |
Arrival
| Time | 2026-05-08 08:02 |
|---|---|
| Airport | LaGuardia Airport (KLGA) |
| Time | Latitude | Longitude | Altitude | Speed | Heading |
|---|---|---|---|---|---|
| 2026-05-08 06:40 | 42.36551 | -71.01550 | 23 ft | 0 kts | 44° |
| 2026-05-08 06:48 | 42.36538 | -71.01569 | 26 ft | 4 kts | 51° |
| 2026-05-08 06:48 | 42.36523 | -71.01599 | 24 ft | 4 kts | 71° |
| 2026-05-08 06:48 | 42.36521 | -71.01630 | 23 ft | 4 kts | 125° |
| 2026-05-08 06:49 | 42.36530 | -71.01641 | 25 ft | 1 kts | 154° |
| 2026-05-08 06:49 | 42.36531 | -71.01642 | 25 ft | 0 kts | 154° |
| 2026-05-08 06:53 | 42.36503 | -71.01621 | 24 ft | 9 kts | 144° |
| 2026-05-08 06:53 | 42.36446 | -71.01524 | 25 ft | 15 kts | 125° |
| 2026-05-08 06:53 | 42.36387 | -71.01415 | 25 ft | 14 kts | 127° |
| 2026-05-08 06:54 | 42.36341 | -71.01320 | 25 ft | 10 kts | 122° |
| 2026-05-08 06:54 | 42.36301 | -71.01233 | 27 ft | 14 kts | 121° |
| 2026-05-08 06:54 | 42.36242 | -71.01082 | 26 ft | 23 kts | 113° |
| 2026-05-08 06:54 | 42.36167 | -71.00854 | 27 ft | 25 kts | 114° |
| 2026-05-08 06:55 | 42.36092 | -71.00603 | 23 ft | 27 kts | 108° |
| 2026-05-08 06:55 | 42.36042 | -71.00401 | 27 ft | 22 kts | 109° |
| 2026-05-08 06:55 | 42.35998 | -71.00219 | 28 ft | 19 kts | 106° |
| 2026-05-08 06:55 | 42.35947 | -71.00073 | 29 ft | 16 kts | 124° |
| 2026-05-08 06:56 | 42.35875 | -70.99967 | 30 ft | 14 kts | 135° |
| 2026-05-08 06:56 | 42.35813 | -70.99884 | 31 ft | 11 kts | 135° |
| 2026-05-08 06:56 | 42.35749 | -70.99798 | 29 ft | 17 kts | 135° |
| 2026-05-08 06:56 | 42.35662 | -70.99678 | 28 ft | 17 kts | 133° |
| 2026-05-08 06:57 | 42.35579 | -70.99568 | 29 ft | 17 kts | 138° |
| 2026-05-08 06:57 | 42.35500 | -70.99463 | 25 ft | 9 kts | 136° |
| 2026-05-08 06:57 | 42.35487 | -70.99405 | 28 ft | 5 kts | 88° |
| 2026-05-08 06:57 | 42.35492 | -70.99361 | 26 ft | 4 kts | 78° |
| 2026-05-08 06:58 | 42.35499 | -70.99330 | 27 ft | 3 kts | 73° |
| 2026-05-08 06:58 | 42.35508 | -70.99280 | 27 ft | 5 kts | 72° |
| 2026-05-08 06:58 | 42.35529 | -70.99256 | 27 ft | 3 kts | 9° |
| 2026-05-08 06:58 | 42.35545 | -70.99269 | 27 ft | 2 kts | 315° |
| 2026-05-08 06:59 | 42.35584 | -70.99323 | 30 ft | 25 kts | 315° |
| 2026-05-08 06:59 | 42.35929 | -70.99787 | 32 ft | 111 kts | 316° |
| 2026-05-08 06:59 | 42.36640 | -71.00741 | 100 ft | 168 kts | 312° |
| 2026-05-08 06:59 | 42.37427 | -71.01911 | 925 ft | 168 kts | 311° |
| 2026-05-08 07:00 | 42.38238 | -71.03052 | 1926 ft | 170 kts | 306° |
| 2026-05-08 07:00 | 42.38886 | -71.04389 | 2506 ft | 175 kts | 300° |
| 2026-05-08 07:00 | 42.39549 | -71.05884 | 2712 ft | 196 kts | 300° |
| 2026-05-08 07:00 | 42.40281 | -71.07569 | 2891 ft | 219 kts | 300° |
| 2026-05-08 07:01 | 42.40880 | -71.09570 | 3216 ft | 241 kts | 274° |
| 2026-05-08 07:01 | 42.40518 | -71.11814 | 3900 ft | 252 kts | 246° |
| 2026-05-08 07:01 | 42.39610 | -71.13863 | 4734 ft | 256 kts | 238° |
| 2026-05-08 07:01 | 42.38531 | -71.15805 | 5548 ft | 260 kts | 234° |
| 2026-05-08 07:02 | 42.37385 | -71.17766 | 6342 ft | 264 kts | 234° |
| 2026-05-08 07:02 | 42.36253 | -71.19726 | 7153 ft | 265 kts | 236° |
| 2026-05-08 07:02 | 42.35138 | -71.21708 | 7971 ft | 265 kts | 237° |
| 2026-05-08 07:02 | 42.34043 | -71.23710 | 8824 ft | 265 kts | 238° |
| 2026-05-08 07:03 | 42.32964 | -71.25723 | 9665 ft | 264 kts | 239° |
| 2026-05-08 07:03 | 42.31892 | -71.27748 | 10280 ft | 271 kts | 239° |
| 2026-05-08 07:03 | 42.30761 | -71.29908 | 10421 ft | 293 kts | 239° |
| 2026-05-08 07:03 | 42.29543 | -71.32240 | 10553 ft | 314 kts | 239° |
| 2026-05-08 07:04 | 42.28239 | -71.34721 | 10761 ft | 330 kts | 238° |
| 2026-05-08 07:04 | 42.26899 | -71.37249 | 11434 ft | 332 kts | 238° |
| 2026-05-08 07:04 | 42.25556 | -71.39774 | 12203 ft | 330 kts | 238° |
| 2026-05-08 07:04 | 42.24218 | -71.42288 | 13001 ft | 329 kts | 237° |
| 2026-05-08 07:05 | 42.22885 | -71.44794 | 13750 ft | 327 kts | 237° |
| 2026-05-08 07:05 | 42.21561 | -71.47288 | 14396 ft | 327 kts | 237° |
| 2026-05-08 07:05 | 42.20236 | -71.49788 | 14999 ft | 328 kts | 237° |
| 2026-05-08 07:05 | 42.18904 | -71.52294 | 15561 ft | 330 kts | 237° |
| 2026-05-08 07:06 | 42.17564 | -71.54815 | 15765 ft | 330 kts | 237° |
| 2026-05-08 07:06 | 42.16206 | -71.57376 | 15818 ft | 344 kts | 237° |
| 2026-05-08 07:06 | 42.14790 | -71.60047 | 15819 ft | 355 kts | 237° |
| 2026-05-08 07:06 | 42.13345 | -71.62763 | 15801 ft | 357 kts | 236° |
| 2026-05-08 07:07 | 42.11894 | -71.65484 | 15818 ft | 358 kts | 236° |
| 2026-05-08 07:07 | 42.10441 | -71.68207 | 15815 ft | 358 kts | 237° |
| 2026-05-08 07:07 | 42.09218 | -71.71104 | 15819 ft | 356 kts | 246° |
| 2026-05-08 07:07 | 42.08430 | -71.74262 | 15815 ft | 357 kts | 256° |
| 2026-05-08 07:08 | 42.07953 | -71.77541 | 15818 ft | 357 kts | 257° |
| 2026-05-08 07:08 | 42.07476 | -71.80821 | 15818 ft | 357 kts | 257° |
| 2026-05-08 07:08 | 42.06994 | -71.84100 | 15823 ft | 357 kts | 257° |
| 2026-05-08 07:08 | 42.06508 | -71.87382 | 15824 ft | 358 kts | 257° |
| 2026-05-08 07:09 | 42.06020 | -71.90662 | 15829 ft | 358 kts | 257° |
| 2026-05-08 07:09 | 42.05523 | -71.93991 | 15833 ft | 358 kts | 257° |
| 2026-05-08 07:09 | 42.05035 | -71.97231 | 15824 ft | 359 kts | 257° |
| 2026-05-08 07:09 | 42.04541 | -72.00520 | 15838 ft | 359 kts | 257° |
| 2026-05-08 07:10 | 42.04044 | -72.03848 | 15833 ft | 359 kts | 257° |
| 2026-05-08 07:10 | 42.03555 | -72.07137 | 15838 ft | 359 kts | 257° |
| 2026-05-08 07:10 | 42.03229 | -72.09317 | 15836 ft | 359 kts | 257° |
| 2026-05-08 07:10 | 42.02735 | -72.12609 | 15838 ft | 359 kts | 257° |
| 2026-05-08 07:11 | 42.02238 | -72.15901 | 15805 ft | 359 kts | 257° |
| 2026-05-08 07:11 | 42.01738 | -72.19192 | 15805 ft | 359 kts | 257° |
| 2026-05-08 07:11 | 42.01238 | -72.22481 | 15825 ft | 359 kts | 257° |
| 2026-05-08 07:11 | 42.00739 | -72.25766 | 15858 ft | 359 kts | 257° |
| 2026-05-08 07:12 | 42.00240 | -72.29054 | 15840 ft | 359 kts | 257° |
| 2026-05-08 07:12 | 41.99741 | -72.32340 | 15852 ft | 359 kts | 257° |
| 2026-05-08 07:12 | 41.99240 | -72.35631 | 15849 ft | 359 kts | 257° |
| 2026-05-08 07:12 | 41.98735 | -72.38918 | 15844 ft | 359 kts | 257° |
| 2026-05-08 07:13 | 41.98228 | -72.42210 | 15851 ft | 360 kts | 257° |
| 2026-05-08 07:13 | 41.97721 | -72.45504 | 15840 ft | 360 kts | 257° |
| 2026-05-08 07:13 | 41.97214 | -72.48796 | 15846 ft | 360 kts | 257° |
| 2026-05-08 07:13 | 41.96704 | -72.52082 | 15854 ft | 360 kts | 257° |
| 2026-05-08 07:14 | 41.96194 | -72.55369 | 15845 ft | 359 kts | 257° |
| 2026-05-08 07:14 | 41.95683 | -72.58660 | 15852 ft | 359 kts | 257° |
| 2026-05-08 07:14 | 41.95164 | -72.61989 | 15859 ft | 360 kts | 257° |
| 2026-05-08 07:14 | 41.94653 | -72.65276 | 15849 ft | 360 kts | 257° |
| 2026-05-08 07:15 | 41.94142 | -72.68572 | 15850 ft | 360 kts | 257° |
| 2026-05-08 07:15 | 41.93599 | -72.71854 | 15849 ft | 360 kts | 256° |
| 2026-05-08 07:15 | 41.93009 | -72.75128 | 15848 ft | 360 kts | 255° |
| 2026-05-08 07:15 | 41.92395 | -72.78394 | 15846 ft | 361 kts | 255° |
| 2026-05-08 07:16 | 41.91775 | -72.81651 | 15813 ft | 360 kts | 255° |
| 2026-05-08 07:16 | 41.91158 | -72.84908 | 15825 ft | 360 kts | 255° |
| 2026-05-08 07:16 | 41.90547 | -72.88161 | 15839 ft | 359 kts | 255° |
| 2026-05-08 07:16 | 41.89939 | -72.91412 | 15843 ft | 359 kts | 255° |
| 2026-05-08 07:17 | 41.89336 | -72.94668 | 15844 ft | 359 kts | 255° |
| 2026-05-08 07:17 | 41.88731 | -72.97922 | 15866 ft | 360 kts | 255° |
| 2026-05-08 07:17 | 41.88123 | -73.01181 | 15859 ft | 360 kts | 255° |
| 2026-05-08 07:17 | 41.87516 | -73.04433 | 15857 ft | 360 kts | 255° |
| 2026-05-08 07:18 | 41.86909 | -73.07696 | 15851 ft | 360 kts | 255° |
| 2026-05-08 07:18 | 41.86300 | -73.10947 | 15846 ft | 356 kts | 255° |
| 2026-05-08 07:18 | 41.85595 | -73.14059 | 15554 ft | 344 kts | 246° |
| 2026-05-08 07:18 | 41.84303 | -73.16727 | 14982 ft | 343 kts | 231° |
| 2026-05-08 07:19 | 41.82516 | -73.18875 | 14306 ft | 346 kts | 225° |
| 2026-05-08 07:19 | 41.80671 | -73.20949 | 13795 ft | 347 kts | 225° |
| 2026-05-08 07:19 | 41.78811 | -73.23032 | 13434 ft | 350 kts | 225° |
| 2026-05-08 07:19 | 41.76943 | -73.25124 | 13039 ft | 349 kts | 225° |
| 2026-05-08 07:20 | 41.75085 | -73.27206 | 12673 ft | 348 kts | 225° |
| 2026-05-08 07:20 | 41.73229 | -73.29290 | 12306 ft | 348 kts | 225° |
| 2026-05-08 07:20 | 41.71369 | -73.31384 | 11944 ft | 351 kts | 225° |
| 2026-05-08 07:20 | 41.69503 | -73.33489 | 11588 ft | 352 kts | 225° |
| 2026-05-08 07:21 | 41.67626 | -73.35602 | 11231 ft | 353 kts | 224° |
| 2026-05-08 07:21 | 41.65746 | -73.37712 | 10873 ft | 353 kts | 224° |
| 2026-05-08 07:21 | 41.63860 | -73.39823 | 10534 ft | 353 kts | 224° |
| 2026-05-08 07:21 | 41.61974 | -73.41934 | 10190 ft | 354 kts | 224° |
| 2026-05-08 07:22 | 41.60091 | -73.44041 | 9848 ft | 352 kts | 224° |
| 2026-05-08 07:22 | 41.58211 | -73.46142 | 9464 ft | 343 kts | 224° |
| 2026-05-08 07:22 | 41.56412 | -73.48148 | 9305 ft | 329 kts | 224° |
| 2026-05-08 07:22 | 41.54707 | -73.50035 | 9291 ft | 303 kts | 225° |
| 2026-05-08 07:23 | 41.53164 | -73.51738 | 9268 ft | 278 kts | 225° |
| 2026-05-08 07:23 | 41.51694 | -73.53374 | 9210 ft | 275 kts | 225° |
| 2026-05-08 07:23 | 41.50240 | -73.55004 | 8936 ft | 272 kts | 225° |
| 2026-05-08 07:23 | 41.48798 | -73.56625 | 8666 ft | 271 kts | 225° |
| 2026-05-08 07:24 | 41.47328 | -73.58198 | 8402 ft | 273 kts | 220° |
| 2026-05-08 07:24 | 41.45694 | -73.59542 | 8156 ft | 277 kts | 212° |
| 2026-05-08 07:24 | 41.43925 | -73.60574 | 7903 ft | 279 kts | 204° |
| 2026-05-08 07:24 | 41.42053 | -73.61272 | 7631 ft | 281 kts | 195° |
| 2026-05-08 07:25 | 41.40113 | -73.61628 | 7376 ft | 283 kts | 187° |
| 2026-05-08 07:25 | 41.38140 | -73.61632 | 7119 ft | 284 kts | 179° |
| 2026-05-08 07:25 | 41.34259 | -73.60582 | 6606 ft | 285 kts | 165° |
| 2026-05-08 07:26 | 41.32361 | -73.59824 | 6368 ft | 284 kts | 165° |
| 2026-05-08 07:26 | 41.30472 | -73.59079 | 6114 ft | 283 kts | 166° |
| 2026-05-08 07:26 | 41.28587 | -73.58336 | 5845 ft | 283 kts | 164° |
| 2026-05-08 07:26 | 41.26747 | -73.57406 | 5589 ft | 283 kts | 158° |
| 2026-05-08 07:27 | 41.24930 | -73.56406 | 5327 ft | 281 kts | 162° |
| 2026-05-08 07:27 | 41.23052 | -73.55722 | 5077 ft | 278 kts | 171° |
| 2026-05-08 07:27 | 41.21148 | -73.55411 | 4911 ft | 276 kts | 180° |
| 2026-05-08 07:27 | 41.19233 | -73.55453 | 4902 ft | 276 kts | 188° |
| 2026-05-08 07:28 | 41.17344 | -73.55841 | 4897 ft | 274 kts | 196° |
| 2026-05-08 07:28 | 41.15524 | -73.56560 | 4891 ft | 272 kts | 204° |
| 2026-05-08 07:28 | 41.13810 | -73.57589 | 4889 ft | 269 kts | 212° |
| 2026-05-08 07:28 | 41.12211 | -73.58878 | 4894 ft | 269 kts | 216° |
| 2026-05-08 07:29 | 41.10610 | -73.60215 | 4892 ft | 269 kts | 215° |
| 2026-05-08 07:29 | 41.09040 | -73.61517 | 4895 ft | 269 kts | 215° |
| 2026-05-08 07:29 | 41.07434 | -73.62850 | 4898 ft | 269 kts | 216° |
| 2026-05-08 07:29 | 41.05863 | -73.64192 | 4890 ft | 268 kts | 218° |
| 2026-05-08 07:30 | 41.04377 | -73.65685 | 4884 ft | 268 kts | 222° |
| 2026-05-08 07:30 | 41.02939 | -73.67252 | 4890 ft | 268 kts | 223° |
| 2026-05-08 07:30 | 41.01508 | -73.68836 | 4895 ft | 268 kts | 223° |
| 2026-05-08 07:30 | 41.00073 | -73.70413 | 4896 ft | 268 kts | 223° |
| 2026-05-08 07:31 | 40.98630 | -73.71978 | 4905 ft | 268 kts | 223° |
| 2026-05-08 07:31 | 40.97177 | -73.73532 | 4898 ft | 268 kts | 221° |
| 2026-05-08 07:31 | 40.95724 | -73.75072 | 4895 ft | 268 kts | 221° |
| 2026-05-08 07:31 | 40.94268 | -73.76609 | 4898 ft | 268 kts | 222° |
| 2026-05-08 07:32 | 40.92810 | -73.78144 | 4891 ft | 268 kts | 223° |
| 2026-05-08 07:32 | 40.91347 | -73.79679 | 4898 ft | 268 kts | 221° |
| 2026-05-08 07:32 | 40.89887 | -73.81212 | 4897 ft | 268 kts | 221° |
| 2026-05-08 07:32 | 40.88431 | -73.82747 | 4896 ft | 268 kts | 221° |
| 2026-05-08 07:33 | 40.86972 | -73.84284 | 4894 ft | 268 kts | 221° |
| 2026-05-08 07:33 | 40.85513 | -73.85818 | 4904 ft | 268 kts | 222° |
| 2026-05-08 07:33 | 40.84051 | -73.87349 | 4892 ft | 268 kts | 221° |
| 2026-05-08 07:33 | 40.82586 | -73.88880 | 4894 ft | 269 kts | 221° |
| 2026-05-08 07:34 | 40.81118 | -73.90412 | 4897 ft | 269 kts | 220° |
| 2026-05-08 07:34 | 40.79652 | -73.91941 | 4898 ft | 266 kts | 221° |
| 2026-05-08 07:34 | 40.78244 | -73.93409 | 4897 ft | 250 kts | 222° |
| 2026-05-08 07:34 | 40.76921 | -73.94785 | 4894 ft | 234 kts | 220° |
| 2026-05-08 07:35 | 40.75670 | -73.96089 | 4888 ft | 228 kts | 223° |
| 2026-05-08 07:35 | 40.74432 | -73.97386 | 4809 ft | 226 kts | 222° |
| 2026-05-08 07:35 | 40.73202 | -73.98676 | 4723 ft | 226 kts | 222° |
| 2026-05-08 07:35 | 40.71971 | -73.99961 | 4658 ft | 226 kts | 222° |
| 2026-05-08 07:36 | 40.70740 | -74.01241 | 4575 ft | 225 kts | 221° |
| 2026-05-08 07:36 | 40.69513 | -74.02517 | 4496 ft | 224 kts | 222° |
| 2026-05-08 07:36 | 40.68288 | -74.03792 | 4414 ft | 224 kts | 221° |
| 2026-05-08 07:36 | 40.67063 | -74.05067 | 4233 ft | 224 kts | 221° |
| 2026-05-08 07:37 | 40.65844 | -74.06337 | 4136 ft | 223 kts | 222° |
| 2026-05-08 07:37 | 40.64625 | -74.07607 | 4052 ft | 223 kts | 221° |
| 2026-05-08 07:37 | 40.63408 | -74.08873 | 3979 ft | 223 kts | 221° |
| 2026-05-08 07:37 | 40.62173 | -74.10157 | 3893 ft | 223 kts | 220° |
| 2026-05-08 07:38 | 40.60970 | -74.11404 | 3823 ft | 216 kts | 221° |
| 2026-05-08 07:38 | 40.59766 | -74.12550 | 3769 ft | 214 kts | 211° |
| 2026-05-08 07:38 | 40.58310 | -74.12857 | 3677 ft | 218 kts | 173° |
| 2026-05-08 07:38 | 40.56922 | -74.12053 | 3604 ft | 223 kts | 141° |
| 2026-05-08 07:39 | 40.55965 | -74.10457 | 3545 ft | 224 kts | 113° |
| 2026-05-08 07:39 | 40.55616 | -74.08494 | 3458 ft | 220 kts | 87° |
| 2026-05-08 07:39 | 40.55929 | -74.06561 | 3396 ft | 215 kts | 61° |
| 2026-05-08 07:39 | 40.56810 | -74.05023 | 3312 ft | 210 kts | 35° |
| 2026-05-08 07:40 | 40.58016 | -74.03972 | 3240 ft | 207 kts | 28° |
| 2026-05-08 07:40 | 40.59199 | -74.02999 | 3170 ft | 195 kts | 28° |
| 2026-05-08 07:40 | 40.60329 | -74.02069 | 3059 ft | 190 kts | 28° |
| 2026-05-08 07:40 | 40.61444 | -74.01157 | 2874 ft | 188 kts | 29° |
| 2026-05-08 07:41 | 40.62546 | -74.00252 | 2699 ft | 186 kts | 29° |
| 2026-05-08 07:41 | 40.63639 | -73.99351 | 2516 ft | 185 kts | 29° |
| 2026-05-08 07:41 | 40.64728 | -73.98454 | 2347 ft | 184 kts | 29° |
| 2026-05-08 07:41 | 40.65815 | -73.97561 | 2158 ft | 184 kts | 29° |
| 2026-05-08 07:42 | 40.66900 | -73.96668 | 1974 ft | 183 kts | 28° |
| 2026-05-08 07:42 | 40.67981 | -73.95778 | 1804 ft | 182 kts | 27° |
| 2026-05-08 07:42 | 40.69051 | -73.94897 | 1682 ft | 181 kts | 27° |
| 2026-05-08 07:42 | 40.70123 | -73.94016 | 1610 ft | 181 kts | 28° |
| 2026-05-08 07:43 | 40.71191 | -73.93138 | 1349 ft | 180 kts | 27° |
| 2026-05-08 07:43 | 40.72231 | -73.92280 | 1094 ft | 169 kts | 27° |
| 2026-05-08 07:43 | 40.73185 | -73.91490 | 846 ft | 154 kts | 27° |
| 2026-05-08 07:43 | 40.74064 | -73.90761 | 656 ft | 147 kts | 28° |
| 2026-05-08 07:44 | 40.74643 | -73.90284 | 514 ft | 145 kts | 27° |
| 2026-05-08 07:44 | 40.75494 | -73.89582 | 307 ft | 143 kts | 28° |
| 2026-05-08 07:44 | 40.76324 | -73.88898 | 202 ft | 140 kts | 26° |
| 2026-05-08 07:44 | 40.77152 | -73.88212 | 34 ft | 140 kts | 27° |
| 2026-05-08 07:45 | 40.77924 | -73.87602 | 85 ft | 135 kts | 25° |
| 2026-05-08 07:45 | 40.78851 | -73.86910 | 454 ft | 169 kts | 25° |
| 2026-05-08 07:45 | 40.79936 | -73.86131 | 1090 ft | 181 kts | 24° |
| 2026-05-08 07:45 | 40.81025 | -73.85346 | 2006 ft | 175 kts | 25° |
| 2026-05-08 07:46 | 40.82030 | -73.84561 | 2683 ft | 164 kts | 28° |
| 2026-05-08 07:46 | 40.83034 | -73.83721 | 3002 ft | 178 kts | 28° |
| 2026-05-08 07:46 | 40.84111 | -73.82805 | 3367 ft | 190 kts | 26° |
| 2026-05-08 07:46 | 40.85362 | -73.82072 | 3365 ft | 199 kts | 17° |
| 2026-05-08 07:47 | 40.86669 | -73.81500 | 3158 ft | 197 kts | 12° |
| 2026-05-08 07:47 | 40.87993 | -73.81044 | 2911 ft | 197 kts | 10° |
| 2026-05-08 07:47 | 40.89334 | -73.80626 | 2974 ft | 198 kts | 4° |
| 2026-05-08 07:47 | 40.90695 | -73.80707 | 3211 ft | 196 kts | 348° |
| 2026-05-08 07:48 | 40.92008 | -73.81174 | 3466 ft | 196 kts | 332° |
| 2026-05-08 07:48 | 40.93185 | -73.82084 | 3720 ft | 196 kts | 323° |
| 2026-05-08 07:48 | 40.94215 | -73.83268 | 3874 ft | 199 kts | 310° |
| 2026-05-08 07:48 | 40.95016 | -73.84880 | 3916 ft | 218 kts | 293° |
| 2026-05-08 07:49 | 40.95176 | -73.86878 | 3912 ft | 226 kts | 261° |
| 2026-05-08 07:49 | 40.94458 | -73.88738 | 3911 ft | 233 kts | 233° |
| 2026-05-08 07:49 | 40.93328 | -73.90306 | 3899 ft | 236 kts | 229° |
| 2026-05-08 07:49 | 40.92141 | -73.91831 | 3933 ft | 233 kts | 227° |
| 2026-05-08 07:50 | 40.90857 | -73.93143 | 3903 ft | 237 kts | 212° |
| 2026-05-08 07:50 | 40.89364 | -73.94091 | 3895 ft | 238 kts | 208° |
| 2026-05-08 07:50 | 40.87902 | -73.95094 | 3900 ft | 236 kts | 215° |
| 2026-05-08 07:50 | 40.86531 | -73.96273 | 3900 ft | 235 kts | 217° |
| 2026-05-08 07:51 | 40.85174 | -73.97472 | 3913 ft | 235 kts | 216° |
| 2026-05-08 07:51 | 40.83818 | -73.98677 | 3905 ft | 235 kts | 218° |
| 2026-05-08 07:51 | 40.82463 | -73.99888 | 3907 ft | 235 kts | 217° |
| 2026-05-08 07:51 | 40.81120 | -74.01103 | 3906 ft | 234 kts | 218° |
| 2026-05-08 07:52 | 40.79780 | -74.02320 | 3908 ft | 234 kts | 217° |
| 2026-05-08 07:52 | 40.78439 | -74.03530 | 3906 ft | 233 kts | 218° |
| 2026-05-08 07:52 | 40.77095 | -74.04740 | 3921 ft | 234 kts | 218° |
| 2026-05-08 07:52 | 40.75754 | -74.05954 | 3925 ft | 234 kts | 218° |
| 2026-05-08 07:53 | 40.74411 | -74.07161 | 3916 ft | 234 kts | 217° |
| 2026-05-08 07:53 | 40.73063 | -74.08367 | 3914 ft | 234 kts | 217° |
| 2026-05-08 07:53 | 40.71725 | -74.09572 | 3918 ft | 233 kts | 217° |
| 2026-05-08 07:53 | 40.70395 | -74.10783 | 3794 ft | 230 kts | 217° |
| 2026-05-08 07:54 | 40.69075 | -74.11983 | 3367 ft | 231 kts | 218° |
| 2026-05-08 07:54 | 40.67751 | -74.13179 | 2978 ft | 231 kts | 217° |
| 2026-05-08 07:54 | 40.66433 | -74.14380 | 2912 ft | 229 kts | 217° |
| 2026-05-08 07:54 | 40.65113 | -74.15499 | 2907 ft | 225 kts | 206° |
| 2026-05-08 07:55 | 40.63620 | -74.16095 | 2912 ft | 228 kts | 186° |
| 2026-05-08 07:55 | 40.62035 | -74.15933 | 2916 ft | 230 kts | 172° |
| 2026-05-08 07:55 | 40.60546 | -74.15190 | 2911 ft | 229 kts | 146° |
| 2026-05-08 07:55 | 40.59496 | -74.13661 | 2912 ft | 225 kts | 116° |
| 2026-05-08 07:56 | 40.59117 | -74.11701 | 2915 ft | 221 kts | 88° |
| 2026-05-08 07:56 | 40.59284 | -74.09706 | 2920 ft | 220 kts | 79° |
| 2026-05-08 07:56 | 40.59485 | -74.07719 | 2914 ft | 218 kts | 79° |
| 2026-05-08 07:56 | 40.59684 | -74.05743 | 2928 ft | 217 kts | 81° |
| 2026-05-08 07:57 | 40.60049 | -74.03831 | 2922 ft | 214 kts | 65° |
| 2026-05-08 07:57 | 40.60809 | -74.02136 | 2928 ft | 212 kts | 49° |
| 2026-05-08 07:57 | 40.61836 | -74.00844 | 2862 ft | 198 kts | 33° |
| 2026-05-08 07:57 | 40.62962 | -73.99920 | 2735 ft | 185 kts | 28° |
| 2026-05-08 07:58 | 40.64046 | -73.99033 | 2413 ft | 183 kts | 28° |
| 2026-05-08 07:58 | 40.65120 | -73.98146 | 2070 ft | 182 kts | 28° |
| 2026-05-08 07:58 | 40.66192 | -73.97264 | 1729 ft | 181 kts | 28° |
| 2026-05-08 07:58 | 40.67257 | -73.96386 | 1630 ft | 181 kts | 27° |
| 2026-05-08 07:59 | 40.68326 | -73.95506 | 1635 ft | 181 kts | 28° |
| 2026-05-08 07:59 | 40.69390 | -73.94629 | 1619 ft | 181 kts | 27° |
| 2026-05-08 07:59 | 40.70402 | -73.93791 | 1613 ft | 166 kts | 28° |
| 2026-05-08 07:59 | 40.71361 | -73.92997 | 1332 ft | 155 kts | 28° |
| 2026-05-08 08:00 | 40.72244 | -73.92263 | 1085 ft | 144 kts | 26° |
| 2026-05-08 08:00 | 40.73095 | -73.91563 | 882 ft | 144 kts | 27° |
| 2026-05-08 08:00 | 40.73945 | -73.90865 | 687 ft | 144 kts | 29° |
| 2026-05-08 08:00 | 40.74788 | -73.90170 | 482 ft | 143 kts | 28° |
| 2026-05-08 08:01 | 40.75630 | -73.89472 | 291 ft | 141 kts | 27° |
| 2026-05-08 08:01 | 40.76458 | -73.88783 | 160 ft | 140 kts | 27° |
| 2026-05-08 08:01 | 40.77281 | -73.88109 | 26 ft | 134 kts | 26° |
| 2026-05-08 08:01 | 40.77922 | -73.87595 | 15 ft | 68 kts | 34° |
| 2026-05-08 08:02 | 40.78079 | -73.87456 | 13 ft | 4 kts | 30° |
| 2026-05-08 08:02 | 40.78175 | -73.87376 | 13 ft | 28 kts | 34° |
| 2026-05-08 08:02 | 40.78251 | -73.87256 | 13 ft | 9 kts | 117° |
| 2026-05-08 08:02 | 40.78213 | -73.87231 | 13 ft | 6 kts | 159° |
| 2026-05-08 08:03 | 40.78180 | -73.87228 | 14 ft | 4 kts | 190° |
| 2026-05-08 08:03 | 40.78161 | -73.87238 | 14 ft | 2 kts | 204° |
| 2026-05-08 08:03 | 40.78153 | -73.87243 | 14 ft | 1 kts | 206° |
| 2026-05-08 08:03 | 40.78118 | -73.87270 | 14 ft | 12 kts | 213° |
| 2026-05-08 08:04 | 40.78005 | -73.87366 | 14 ft | 26 kts | 212° |
| 2026-05-08 08:04 | 40.77862 | -73.87485 | 18 ft | 21 kts | 209° |
| 2026-05-08 08:04 | 40.77746 | -73.87560 | 21 ft | 13 kts | 168° |
| 2026-05-08 08:04 | 40.77726 | -73.87461 | 19 ft | 14 kts | 83° |
| 2026-05-08 08:05 | 40.77702 | -73.87330 | 18 ft | 21 kts | 90° |
| 2026-05-08 08:05 | 40.77694 | -73.87165 | 18 ft | 17 kts | 112° |
| 2026-05-08 08:05 | 40.77659 | -73.87085 | 16 ft | 7 kts | 124° |
| 2026-05-08 08:05 | 40.77625 | -73.87025 | 14 ft | 9 kts | 127° |
| 2026-05-08 08:06 | 40.77592 | -73.86952 | 13 ft | 9 kts | 115° |
| 2026-05-08 08:06 | 40.77589 | -73.86943 | 13 ft | 0 kts | 114° |
| 2026-05-08 08:08 | 40.77584 | -73.86927 | 13 ft | 7 kts | 112° |
| 2026-05-08 08:08 | 40.77563 | -73.86862 | 13 ft | 7 kts | 116° |
| 2026-05-08 08:09 | 40.77535 | -73.86806 | 12 ft | 7 kts | 128° |
| 2026-05-08 08:09 | 40.77524 | -73.86790 | 13 ft | 0 kts | 133° |
| 2026-05-08 08:09 | 40.77521 | -73.86785 | 12 ft | 1 kts | 134° |
| 2026-05-08 08:09 | 40.77510 | -73.86775 | 11 ft | 2 kts | 152° |
| 2026-05-08 08:10 | 40.77493 | -73.86768 | 11 ft | 3 kts | 163° |
| 2026-05-08 08:10 | 40.77485 | -73.86765 | 11 ft | 0 kts | 163° |
| 2026-05-08 08:11 | 40.77474 | -73.86760 | 11 ft | 5 kts | 162° |
| 2026-05-08 08:11 | 40.77443 | -73.86747 | 11 ft | 4 kts | 161° |
| 2026-05-08 08:11 | 40.77423 | -73.86738 | 13 ft | 2 kts | 161° |
| 2026-05-08 08:11 | 40.77404 | -73.86729 | 12 ft | 7 kts | 160° |
| 2026-05-08 08:12 | 40.77357 | -73.86705 | 14 ft | 6 kts | 158° |
| 2026-05-08 08:12 | 40.77332 | -73.86685 | 15 ft | 3 kts | 139° |
| 2026-05-08 08:12 | 40.77322 | -73.86670 | 15 ft | 3 kts | 127° |
| 2026-05-08 08:12 | 40.77309 | -73.86645 | 16 ft | 3 kts | 126° |
| 2026-05-08 08:13 | 40.77295 | -73.86622 | 15 ft | 3 kts | 131° |
| 2026-05-08 08:13 | 40.77281 | -73.86602 | 16 ft | 3 kts | 132° |
| 2026-05-08 08:13 | 40.77273 | -73.86590 | 15 ft | 0 kts | 132° |